Time;durP1;ratioP1;P1;durP2;ratioP2;P2;SDS_P1;SDS_P2;PMS_P1;PMS_P2;Temp;Humidity;BMP_temperature;BMP_pressure;BME280_temperature;BME280_humidity;BME280_pressure;Samples;Min_cycle;Max_cycle;Signal;HPM_P1;HPM_P2
2022/05/02 00:01:26;;;;;;;1.80;1.58;;;21.40;44.80;;;;;;4944015;28;20255;-62
2022/05/02 00:03:52;;;;;;;2.10;1.52;;;21.40;44.90;;;;;;4943253;29;20415;-61
2022/05/02 00:06:17;;;;;;;1.88;1.48;;;21.40;45.00;;;;;;4944449;28;20055;-62
2022/05/02 00:08:43;;;;;;;2.08;1.55;;;21.40;45.00;;;;;;4942963;28;20039;-61
2022/05/02 00:11:09;;;;;;;1.77;1.50;;;21.40;45.10;;;;;;4944894;28;20051;-62
2022/05/02 00:13:35;;;;;;;1.63;1.40;;;21.40;45.10;;;;;;4943673;29;20626;-62
2022/05/02 00:16:00;;;;;;;2.30;1.50;;;21.30;44.90;;;;;;4943933;29;20039;-61
2022/05/02 00:18:28;;;;;;;1.45;1.30;;;21.30;44.90;;;;;;4943790;28;20439;-61
2022/05/02 00:20:53;;;;;;;1.67;1.30;;;21.30;44.80;;;;;;4941168;29;20689;-61
2022/05/02 00:23:20;;;;;;;1.85;1.45;;;21.30;44.80;;;;;;4942779;28;20134;-61
2022/05/02 00:25:46;;;;;;;2.55;1.60;;;21.30;44.70;;;;;;4944118;28;20043;-61
2022/05/02 00:28:15;;;;;;;2.20;1.42;;;21.30;44.60;;;;;;4944244;28;20496;-61
2022/05/02 00:30:41;;;;;;;1.55;1.40;;;21.30;44.50;;;;;;4943288;28;20122;-61
2022/05/02 00:33:07;;;;;;;1.50;1.40;;;21.30;44.40;;;;;;4943215;28;20063;-61
2022/05/02 00:35:32;;;;;;;1.40;1.30;;;21.20;44.30;;;;;;4943216;29;20055;-62
2022/05/02 00:37:58;;;;;;;1.30;1.17;;;21.20;44.20;;;;;;4943876;28;20043;-61
2022/05/02 00:40:24;;;;;;;1.52;1.30;;;21.20;44.20;;;;;;4944292;28;20400;-62
2022/05/02 00:42:50;;;;;;;2.35;1.35;;;21.20;44.20;;;;;;4944256;29;20031;-62
2022/05/02 00:45:17;;;;;;;1.55;1.33;;;21.20;44.20;;;;;;4943899;29;20058;-62
2022/05/02 00:47:50;;;;;;;1.40;1.30;;;21.20;44.10;;;;;;4943457;29;20047;-62
2022/05/02 00:50:16;;;;;;;1.20;1.10;;;21.20;44.00;;;;;;4941421;29;20447;-61
2022/05/02 00:52:41;;;;;;;1.80;1.40;;;21.10;44.00;;;;;;4943631;28;20039;-62
2022/05/02 00:55:08;;;;;;;1.50;1.40;;;21.10;44.00;;;;;;4943304;28;20035;-62
2022/05/02 00:57:34;;;;;;;1.13;1.08;;;21.10;43.90;;;;;;4945122;29;20047;-61
2022/05/02 01:00:01;;;;;;;2.20;1.50;;;21.10;44.00;;;;;;4943103;28;20420;-61
2022/05/02 01:02:27;;;;;;;1.98;1.40;;;21.10;44.00;;;;;;4943105;28;20419;-61
2022/05/02 01:04:52;;;;;;;1.55;1.30;;;21.10;43.90;;;;;;4943571;28;20043;-61
2022/05/02 01:07:21;;;;;;;2.03;1.50;;;21.10;44.00;;;;;;4944440;28;20054;-62
2022/05/02 01:09:48;;;;;;;2.33;1.40;;;21.10;43.90;;;;;;4943273;28;20112;-61
2022/05/02 01:12:22;;;;;;;1.30;1.20;;;21.10;44.00;;;;;;4944183;29;20085;-61
2022/05/02 01:14:51;;;;;;;1.92;1.65;;;21.10;44.70;;;;;;4943982;28;20129;-62
2022/05/02 01:17:17;;;;;;;1.30;1.20;;;21.00;43.90;;;;;;4943574;28;20114;-61
2022/05/02 01:19:44;;;;;;;1.50;1.40;;;21.10;44.00;;;;;;4943519;29;20039;-61
2022/05/02 01:22:10;;;;;;;1.48;1.38;;;21.00;43.90;;;;;;4944115;28;20039;-62
2022/05/02 01:24:43;;;;;;;1.65;1.50;;;21.00;43.90;;;;;;4943928;28;20040;-62
2022/05/02 01:27:09;;;;;;;1.42;1.33;;;21.00;43.90;;;;;;4944254;29;20464;-62
2022/05/02 01:29:37;;;;;;;1.40;1.30;;;21.00;44.30;;;;;;4941524;28;20053;-61
2022/05/02 01:32:06;;;;;;;1.42;1.33;;;21.00;43.80;;;;;;4943842;28;20120;-61
2022/05/02 01:34:33;;;;;;;1.67;1.30;;;21.00;43.80;;;;;;4946953;29;20166;-61
2022/05/02 01:36:59;;;;;;;1.40;1.30;;;21.00;43.80;;;;;;4948334;29;20055;-61
2022/05/02 01:39:25;;;;;;;2.15;1.60;;;21.00;43.80;;;;;;4946655;28;20058;-61
2022/05/02 01:41:50;;;;;;;1.85;1.50;;;20.90;43.70;;;;;;4946485;28;20090;-61
2022/05/02 01:44:16;;;;;;;2.20;1.45;;;20.90;43.70;;;;;;4947910;28;20043;-61
2022/05/02 01:46:42;;;;;;;1.58;1.48;;;20.90;43.60;;;;;;4946553;29;20031;-61
2022/05/02 01:49:07;;;;;;;1.88;1.25;;;20.90;43.60;;;;;;4947306;29;20846;-61
2022/05/02 01:51:33;;;;;;;1.58;1.42;;;20.90;43.50;;;;;;4946958;28;20050;-61
2022/05/02 01:53:58;;;;;;;1.38;1.25;;;20.90;43.50;;;;;;4947428;28;20054;-62
2022/05/02 01:56:24;;;;;;;1.60;1.50;;;20.80;43.40;;;;;;4942820;29;20514;-61
2022/05/02 01:58:49;;;;;;;1.80;1.70;;;20.90;43.50;;;;;;4947726;28;20043;-61
2022/05/02 02:01:15;;;;;;;1.48;1.38;;;20.80;43.40;;;;;;4941342;28;20047;-61
2022/05/02 02:03:41;;;;;;;1.63;1.52;;;20.80;43.40;;;;;;4941207;28;20035;-61
2022/05/02 02:06:06;;;;;;;2.15;1.45;;;20.80;43.30;;;;;;4941424;29;20059;-61
2022/05/02 02:08:33;;;;;;;2.45;1.50;;;20.80;43.30;;;;;;4953967;28;20043;-60
2022/05/02 02:11:02;;;;;;;1.58;1.48;;;20.80;43.20;;;;;;4946520;28;20039;-61
2022/05/02 02:13:27;;;;;;;2.22;1.65;;;20.80;43.20;;;;;;4947099;29;20081;-61
2022/05/02 02:15:54;;;;;;;2.75;1.63;;;20.80;43.20;;;;;;4945861;28;22111;-61
2022/05/02 02:18:20;;;;;;;2.05;1.70;;;20.80;43.20;;;;;;4947132;28;20043;-61
2022/05/02 02:20:53;;;;;;;2.25;1.70;;;20.80;43.20;;;;;;4937649;29;20097;-61
2022/05/02 02:23:20;;;;;;;2.10;1.73;;;20.70;43.20;;;;;;4940498;29;20035;-61
2022/05/02 02:25:45;;;;;;;1.70;1.60;;;20.80;43.20;;;;;;4942280;28;20252;-61
2022/05/02 02:28:15;;;;;;;1.73;1.60;;;20.80;43.20;;;;;;4946653;29;20047;-61
2022/05/02 02:30:42;;;;;;;1.60;1.50;;;20.70;43.10;;;;;;4944193;29;20054;-62
2022/05/02 02:33:07;;;;;;;1.63;1.50;;;20.70;43.20;;;;;;4944167;28;20047;-61
2022/05/02 02:35:33;;;;;;;1.70;1.60;;;20.70;43.20;;;;;;4944232;28;20460;-62
2022/05/02 02:37:59;;;;;;;1.60;1.50;;;20.70;43.40;;;;;;4945757;29;20900;-61
2022/05/02 02:40:25;;;;;;;1.92;1.73;;;20.70;43.30;;;;;;4946156;29;20046;-61
2022/05/02 02:42:50;;;;;;;1.77;1.67;;;20.70;43.20;;;;;;4946281;29;20059;-61
2022/05/02 02:45:16;;;;;;;1.73;1.48;;;20.70;43.10;;;;;;4944283;28;20488;-61
2022/05/02 02:47:42;;;;;;;2.05;1.83;;;20.70;43.10;;;;;;4944323;28;20352;-62
2022/05/02 02:50:08;;;;;;;2.38;1.50;;;20.70;43.10;;;;;;4947017;28;20090;-61
2022/05/02 02:52:35;;;;;;;1.70;1.60;;;20.60;43.00;;;;;;4944017;28;20138;-61
2022/05/02 02:55:00;;;;;;;1.38;1.27;;;20.60;43.00;;;;;;4942689;28;20114;-61
2022/05/02 02:57:26;;;;;;;1.58;1.35;;;20.60;43.00;;;;;;4944697;29;20067;-61
2022/05/02 02:59:51;;;;;;;1.98;1.40;;;20.60;42.90;;;;;;4946616;28;20039;-61
2022/05/02 03:02:17;;;;;;;1.90;1.58;;;20.60;42.90;;;;;;4945152;28;20504;-61
2022/05/02 03:07:28;;;;;;;1.50;1.40;;;20.60;42.90;;;;;;4942302;28;20047;-61
2022/05/02 03:09:54;;;;;;;1.90;1.80;;;20.60;42.80;;;;;;4945326;28;20093;-61
2022/05/02 03:12:20;;;;;;;2.00;1.67;;;20.60;42.80;;;;;;4943080;29;20043;-61
2022/05/02 03:14:46;;;;;;;1.90;1.70;;;20.60;42.80;;;;;;4945705;28;20062;-62
2022/05/02 03:17:12;;;;;;;1.80;1.45;;;20.60;42.80;;;;;;4945244;28;20054;-62
2022/05/02 03:19:38;;;;;;;1.60;1.50;;;20.50;42.70;;;;;;4945830;28;20403;-61
2022/05/02 03:22:04;;;;;;;2.45;1.60;;;20.50;42.70;;;;;;4944876;28;20035;-61
2022/05/02 03:24:30;;;;;;;1.60;1.50;;;20.50;42.70;;;;;;4950990;28;20043;-61
2022/05/02 03:26:55;;;;;;;1.80;1.70;;;20.50;42.60;;;;;;4941625;29;20082;-61
2022/05/02 03:29:21;;;;;;;1.70;1.60;;;20.50;42.60;;;;;;4945417;28;20049;-62
2022/05/02 03:31:46;;;;;;;1.70;1.60;;;20.50;42.60;;;;;;4943125;28;20443;-61
2022/05/02 03:34:12;;;;;;;2.00;1.75;;;20.50;42.60;;;;;;4943299;28;20078;-61
2022/05/02 03:36:38;;;;;;;1.73;1.63;;;20.50;42.60;;;;;;4944223;28;20070;-62
2022/05/02 03:39:04;;;;;;;1.60;1.50;;;20.50;42.60;;;;;;4945943;28;20035;-61
2022/05/02 03:41:30;;;;;;;1.85;1.65;;;20.50;42.50;;;;;;4944682;28;20031;-61
2022/05/02 03:43:56;;;;;;;1.98;1.80;;;20.50;42.60;;;;;;4944262;28;20471;-61
2022/05/02 03:46:22;;;;;;;2.10;1.88;;;20.50;42.60;;;;;;4945603;28;20138;-61
2022/05/02 03:48:48;;;;;;;1.67;1.58;;;20.40;42.50;;;;;;4943496;28;20047;-62
2022/05/02 03:51:14;;;;;;;2.40;1.73;;;20.40;42.50;;;;;;4943581;29;20572;-62
2022/05/02 03:53:39;;;;;;;1.67;1.58;;;20.50;42.50;;;;;;4944798;28;20159;-62
2022/05/02 03:56:05;;;;;;;1.92;1.83;;;20.40;42.40;;;;;;4943306;28;21141;-61
2022/05/02 03:58:31;;;;;;;1.73;1.63;;;20.40;42.40;;;;;;4944789;29;20387;-61
2022/05/02 04:00:57;;;;;;;3.17;1.70;;;20.40;42.40;;;;;;4941965;28;20035;-61
2022/05/02 04:03:22;;;;;;;2.05;1.85;;;20.40;42.40;;;;;;4941058;28;20374;-62
2022/05/02 04:05:48;;;;;;;2.15;1.83;;;20.40;42.40;;;;;;4942284;28;20058;-61
2022/05/02 04:08:13;;;;;;;2.45;1.98;;;20.40;42.40;;;;;;4942767;28;20042;-61
2022/05/02 04:10:39;;;;;;;2.47;1.92;;;20.40;42.30;;;;;;4945191;29;20085;-61
2022/05/02 04:13:04;;;;;;;1.90;1.80;;;20.40;42.30;;;;;;4944497;29;20435;-61
2022/05/02 04:15:30;;;;;;;1.83;1.73;;;20.40;42.40;;;;;;4944540;29;20040;-62
2022/05/02 04:17:58;;;;;;;2.25;2.05;;;20.40;42.30;;;;;;4944552;28;20723;-62
2022/05/02 04:20:24;;;;;;;1.90;1.80;;;20.40;42.30;;;;;;4936722;29;20623;-62
2022/05/02 04:22:50;;;;;;;1.98;1.88;;;20.40;42.40;;;;;;4944540;28;20031;-61
2022/05/02 04:25:16;;;;;;;2.03;1.83;;;20.40;42.30;;;;;;4941949;29;20050;-61
2022/05/02 04:27:42;;;;;;;1.80;1.70;;;20.40;42.30;;;;;;4945256;28;20042;-62
2022/05/02 04:30:08;;;;;;;3.78;1.90;;;20.40;42.30;;;;;;4943682;29;20110;-61
2022/05/02 04:32:34;;;;;;;1.88;1.73;;;20.30;42.20;;;;;;4943560;29;20055;-61
2022/05/02 04:34:59;;;;;;;2.25;1.88;;;20.30;42.20;;;;;;4944438;28;20085;-61
2022/05/02 04:37:25;;;;;;;2.20;2.05;;;20.30;42.20;;;;;;4942758;29;20691;-62
2022/05/02 04:39:51;;;;;;;1.90;1.80;;;20.30;42.20;;;;;;4944640;28;20035;-61
2022/05/02 04:42:17;;;;;;;2.58;1.85;;;20.30;42.30;;;;;;4943854;29;20047;-61
2022/05/02 04:44:43;;;;;;;1.80;1.70;;;20.30;42.30;;;;;;4942005;29;20047;-61
2022/05/02 04:47:08;;;;;;;2.28;2.00;;;20.30;43.00;;;;;;4942909;28;20082;-61
2022/05/02 04:49:34;;;;;;;2.20;2.00;;;20.30;42.20;;;;;;4943921;28;20054;-61
2022/05/02 04:51:59;;;;;;;2.05;1.95;;;20.30;42.10;;;;;;4945125;28;20042;-61
2022/05/02 04:54:25;;;;;;;2.00;1.90;;;20.30;42.10;;;;;;4942527;28;20178;-61
2022/05/02 04:56:50;;;;;;;2.92;2.00;;;20.30;42.10;;;;;;4945787;28;20110;-61
2022/05/02 04:59:16;;;;;;;1.85;1.60;;;20.30;42.10;;;;;;4941810;28;20036;-61
2022/05/02 05:01:42;;;;;;;2.72;1.92;;;20.30;42.10;;;;;;4943857;28;20102;-61
2022/05/02 05:04:07;;;;;;;2.33;1.98;;;20.30;42.10;;;;;;4945221;28;20086;-61
2022/05/02 05:06:33;;;;;;;1.88;1.65;;;20.30;42.20;;;;;;4944063;28;20050;-61
2022/05/02 05:08:59;;;;;;;2.30;1.85;;;20.30;42.10;;;;;;4946727;28;20043;-61
2022/05/02 05:11:42;;;;;;;2.88;2.25;;;20.30;42.10;;;;;;4946923;29;20055;-62
2022/05/02 05:17:44;;;;;;;2.92;2.03;;;20.20;42.40;;;;;;4947368;29;20627;-61
2022/05/02 05:20:43;;;;;;;2.35;1.95;;;20.20;42.40;;;;;;4946985;28;20109;-62
2022/05/02 05:23:37;;;;;;;3.28;1.88;;;20.20;42.40;;;;;;4947095;29;20055;-62
2022/05/02 05:26:12;;;;;;;2.63;2.13;;;20.20;42.50;;;;;;4946442;29;20031;-61
2022/05/02 05:28:45;;;;;;;2.17;1.90;;;20.20;42.50;;;;;;4945528;29;20068;-61
2022/05/02 05:31:39;;;;;;;1.95;1.80;;;20.20;42.50;;;;;;4945496;29;20047;-62
2022/05/02 05:34:27;;;;;;;2.42;1.70;;;20.20;42.50;;;;;;4943935;28;20523;-62
2022/05/02 05:37:14;;;;;;;2.63;2.05;;;20.20;42.50;;;;;;4948497;29;20047;-62
2022/05/02 05:40:01;;;;;;;1.80;1.70;;;20.20;42.50;;;;;;4961570;28;20517;-62
2022/05/02 05:42:45;;;;;;;2.40;1.90;;;20.20;42.60;;;;;;4959653;28;20054;-60
2022/05/02 05:45:37;;;;;;;4.72;1.80;;;20.20;42.80;;;;;;4945790;29;20082;-60
2022/05/02 05:48:17;;;;;;;1.90;1.55;;;20.20;43.00;;;;;;4946518;28;20039;-60
2022/05/02 05:50:50;;;;;;;2.63;1.73;;;20.20;43.00;;;;;;4945643;28;20549;-60
2022/05/02 05:53:36;;;;;;;2.00;1.80;;;20.20;43.10;;;;;;4946301;29;20062;-61
2022/05/02 05:56:23;;;;;;;1.80;1.70;;;20.30;43.50;;;;;;4945460;28;20118;-60
2022/05/02 05:58:49;;;;;;;1.40;1.30;;;20.30;43.80;;;;;;4947561;29;20475;-60
2022/05/02 06:01:22;;;;;;;2.70;1.58;;;20.30;43.90;;;;;;4947271;28;20043;-60
2022/05/02 06:04:02;;;;;;;3.28;1.60;;;20.30;43.90;;;;;;4944281;28;20043;-61
2022/05/02 06:06:28;;;;;;;1.55;1.45;;;20.40;44.20;;;;;;4943311;28;20047;-62
2022/05/02 06:08:57;;;;;;;3.70;1.60;;;20.40;44.10;;;;;;4945941;28;20043;-60
2022/05/02 06:11:25;;;;;;;1.80;1.60;;;20.40;44.20;;;;;;4946105;28;20046;-60
2022/05/02 06:13:53;;;;;;;1.83;1.73;;;20.40;44.30;;;;;;4946350;28;20043;-61
2022/05/02 06:19:09;;;;;;;2.58;1.70;;;20.40;44.40;;;;;;4938044;28;20548;-60
2022/05/02 06:21:35;;;;;;;4.40;1.80;;;20.40;44.40;;;;;;4944760;29;20039;-59
2022/05/02 06:24:04;;;;;;;3.22;2.00;;;20.40;44.50;;;;;;4944517;29;20495;-62
2022/05/02 06:26:29;;;;;;;2.83;1.90;;;20.40;44.50;;;;;;4941091;29;20043;-60
2022/05/02 06:28:55;;;;;;;3.13;1.80;;;20.50;44.50;;;;;;4946064;28;20050;-59
2022/05/02 06:31:31;;;;;;;3.63;1.48;;;20.50;44.60;;;;;;4945198;28;20039;-59
2022/05/02 06:33:57;;;;;;;2.28;1.95;;;20.50;44.40;;;;;;4942645;28;20062;-59
2022/05/02 06:36:42;;;;;;;2.63;2.03;;;20.50;44.50;;;;;;4942853;28;20074;-60
2022/05/02 06:39:44;;;;;;;3.63;1.70;;;20.50;44.60;;;;;;4944860;29;20448;-60
2022/05/02 06:42:42;;;;;;;4.47;1.88;;;20.50;44.70;;;;;;4945593;28;20031;-59
2022/05/02 06:45:24;;;;;;;2.25;1.88;;;20.50;45.00;;;;;;4946622;29;20071;-59
2022/05/02 06:48:34;;;;;;;3.80;1.90;;;20.50;45.10;;;;;;4947283;28;20051;-59
2022/05/02 06:51:17;;;;;;;2.63;1.85;;;20.50;45.30;;;;;;4945274;28;20051;-60
2022/05/02 06:54:14;;;;;;;8.02;1.98;;;20.50;45.50;;;;;;4944284;29;20043;-59
2022/05/02 06:56:45;;;;;;;5.35;2.10;;;20.50;45.50;;;;;;4942940;29;20047;-60
2022/05/02 06:59:40;;;;;;;5.07;1.75;;;20.50;45.60;;;;;;4946914;29;20126;-61
2022/05/02 07:02:12;;;;;;;2.65;1.90;;;20.50;45.70;;;;;;4945225;29;20047;-59
2022/05/02 07:04:44;;;;;;;4.13;1.75;;;20.50;45.50;;;;;;4947282;28;20075;-60
2022/05/02 07:07:49;;;;;;;4.55;1.90;;;20.60;45.60;;;;;;4943532;28;20066;-59
2022/05/02 07:10:20;;;;;;;4.35;1.90;;;20.60;45.50;;;;;;4946998;29;20039;-59
2022/05/02 07:13:01;;;;;;;3.17;1.70;;;20.60;45.40;;;;;;4944773;29;20078;-58
2022/05/02 07:15:49;;;;;;;5.35;1.90;;;20.60;45.50;;;;;;4961076;28;20086;-58
2022/05/02 07:18:46;;;;;;;5.10;1.98;;;20.60;45.40;;;;;;4945413;28;20051;-59
2022/05/02 07:21:34;;;;;;;2.13;1.77;;;20.60;45.40;;;;;;4946273;28;20377;-60
2022/05/02 07:24:34;;;;;;;2.97;1.55;;;20.60;45.30;;;;;;4945892;29;20098;-59
2022/05/02 07:27:38;;;;;;;2.95;1.52;;;20.60;45.20;;;;;;4960167;28;20051;-60
2022/05/02 07:30:04;;;;;;;3.78;1.60;;;20.60;45.20;;;;;;4942904;28;20620;-59
2022/05/02 07:32:32;;;;;;;1.50;1.33;;;20.60;45.20;;;;;;4943779;28;20169;-61
2022/05/02 07:34:59;;;;;;;3.08;1.73;;;20.60;45.10;;;;;;4945198;28;20051;-60
2022/05/02 07:37:25;;;;;;;2.28;1.60;;;20.60;45.10;;;;;;4946655;29;20555;-59
2022/05/02 07:39:52;;;;;;;3.00;1.70;;;20.60;45.00;;;;;;4946809;29;20089;-59
2022/05/02 07:42:19;;;;;;;3.28;1.80;;;20.60;45.00;;;;;;4945085;29;20035;-59
2022/05/02 07:44:47;;;;;;;3.33;1.65;;;20.60;45.00;;;;;;4945654;28;20042;-59
2022/05/02 07:47:15;;;;;;;2.60;1.90;;;20.70;45.00;;;;;;4945770;29;20649;-60
2022/05/02 07:49:46;;;;;;;3.75;1.77;;;20.60;45.00;;;;;;4943725;28;20847;-59
2022/05/02 07:52:21;;;;;;;1.95;1.80;;;20.70;45.00;;;;;;4946156;29;20066;-59
2022/05/02 07:54:49;;;;;;;1.60;1.50;;;20.60;44.90;;;;;;4946400;29;20050;-59
2022/05/02 07:57:15;;;;;;;1.55;1.20;;;20.70;44.90;;;;;;4945005;29;20043;-58
2022/05/02 07:59:43;;;;;;;2.65;1.60;;;20.60;44.90;;;;;;4945708;28;20035;-58
2022/05/02 08:02:09;;;;;;;2.00;1.60;;;20.60;44.90;;;;;;4943787;28;20395;-59
2022/05/02 08:04:38;;;;;;;3.25;1.63;;;20.60;44.80;;;;;;4944402;28;20035;-58
2022/05/02 08:07:14;;;;;;;2.25;1.60;;;20.70;44.80;;;;;;4945954;29;20047;-59
2022/05/02 08:10:02;;;;;;;2.88;1.30;;;20.70;44.70;;;;;;4945957;28;20616;-59
2022/05/02 08:12:39;;;;;;;1.98;1.48;;;20.60;44.70;;;;;;4944939;29;20047;-59
2022/05/02 08:15:22;;;;;;;2.45;1.60;;;20.70;44.70;;;;;;4944908;29;20046;-59
2022/05/02 08:18:15;;;;;;;2.45;1.52;;;20.70;44.60;;;;;;4943118;28;20062;-60
2022/05/02 08:21:00;;;;;;;2.25;1.70;;;20.60;44.60;;;;;;4945790;28;20047;-59
2022/05/02 08:27:15;;;;;;;1.92;1.70;;;20.70;44.60;;;;;;4944088;29;20058;-59
2022/05/02 08:30:04;;;;;;;2.15;1.52;;;20.70;44.50;;;;;;4944573;28;20047;-60
2022/05/02 08:32:33;;;;;;;1.90;1.50;;;20.60;44.40;;;;;;4944015;29;20059;-58
2022/05/02 08:35:35;;;;;;;1.95;1.40;;;20.60;44.40;;;;;;4943386;28;20302;-58
2022/05/02 08:38:46;;;;;;;1.88;1.50;;;20.60;44.30;;;;;;4960020;28;20074;-60
2022/05/02 08:41:23;;;;;;;1.67;1.58;;;20.70;44.30;;;;;;4904593;29;20895;-59
2022/05/02 08:44:07;;;;;;;2.80;1.63;;;20.60;44.30;;;;;;4944681;28;20059;-60
2022/05/02 08:47:03;;;;;;;2.22;1.60;;;20.60;44.20;;;;;;4948280;29;20051;-59
2022/05/02 08:50:06;;;;;;;2.45;1.70;;;20.70;44.20;;;;;;4947453;28;20051;-60
2022/05/02 08:52:56;;;;;;;2.53;1.40;;;20.70;44.10;;;;;;4949769;29;20047;-59
2022/05/02 08:55:46;;;;;;;2.42;1.50;;;20.60;44.00;;;;;;4947136;29;20043;-60
2022/05/02 08:58:21;;;;;;;2.00;1.60;;;20.60;44.00;;;;;;4948356;29;20047;-59
2022/05/02 09:01:14;;;;;;;1.70;1.60;;;20.70;44.00;;;;;;4948933;28;20040;-60
2022/05/02 09:04:10;;;;;;;1.70;1.42;;;20.70;43.90;;;;;;4948655;29;20557;-59
2022/05/02 09:07:06;;;;;;;1.70;1.60;;;20.70;43.90;;;;;;4948638;28;20341;-59
2022/05/02 09:09:50;;;;;;;4.30;1.40;;;20.70;43.80;;;;;;4948734;29;20631;-60
2022/05/02 09:12:59;;;;;;;5.18;1.60;;;20.70;43.80;;;;;;4948121;28;20456;-59
2022/05/02 09:15:53;;;;;;;1.63;1.52;;;20.60;43.70;;;;;;4924132;29;20087;-60
2022/05/02 09:18:25;;;;;;;1.35;1.33;;;20.70;43.80;;;;;;4949259;29;20059;-59
2022/05/02 09:21:09;;;;;;;1.83;1.35;;;20.70;43.80;;;;;;4948587;28;20035;-59
2022/05/02 09:23:52;;;;;;;1.85;1.33;;;20.60;43.60;;;;;;4947114;29;20139;-60
2022/05/02 09:26:42;;;;;;;2.47;1.30;;;20.60;43.50;;;;;;4948691;28;20110;-59
2022/05/02 09:29:52;;;;;;;2.88;1.70;;;20.60;43.50;;;;;;4947450;29;20102;-59
2022/05/02 09:32:42;;;;;;;1.80;1.48;;;20.70;43.50;;;;;;4943141;29;20063;-59
2022/05/02 09:35:23;;;;;;;2.55;1.50;;;20.60;43.50;;;;;;4947408;29;20051;-59
2022/05/02 09:37:56;;;;;;;1.50;1.40;;;20.60;43.50;;;;;;4948801;29;20050;-59
2022/05/02 09:40:33;;;;;;;1.38;1.27;;;20.60;43.50;;;;;;4962082;28;20496;-58
2022/05/02 09:50:10;;;;;;;1.60;1.50;;;20.60;43.40;;;;;;4948312;29;20160;-60
2022/05/02 09:52:54;;;;;;;1.55;1.30;;;20.60;43.30;;;;;;4947654;29;20042;-59
2022/05/02 09:58:34;;;;;;;;;;;20.60;43.40;;;;;;4948869;29;20138;-60
2022/05/02 10:01:22;;;;;;;1.55;1.40;;;20.60;43.30;;;;;;4943374;29;20034;-60
2022/05/02 10:04:08;;;;;;;1.50;1.40;;;20.60;43.30;;;;;;4948173;29;20035;-59
2022/05/02 10:06:47;;;;;;;1.50;1.40;;;20.60;43.40;;;;;;4946345;28;20141;-59
2022/05/02 10:09:41;;;;;;;1.73;1.63;;;20.60;43.30;;;;;;4947859;28;20573;-60
2022/05/02 10:12:46;;;;;;;2.45;1.58;;;20.60;43.20;;;;;;4946686;29;20046;-59
2022/05/02 10:15:23;;;;;;;2.05;1.52;;;20.60;43.20;;;;;;4946338;29;20051;-59
2022/05/02 10:18:18;;;;;;;1.50;1.40;;;20.60;43.20;;;;;;4946861;29;20035;-59
2022/05/02 10:21:22;;;;;;;1.95;1.55;;;20.60;43.10;;;;;;4947322;28;20118;-60
2022/05/02 10:24:20;;;;;;;1.42;1.30;;;20.60;43.10;;;;;;4946620;29;20054;-59
2022/05/02 10:26:54;;;;;;;1.77;1.50;;;20.60;43.10;;;;;;4945378;29;20066;-60
2022/05/02 10:29:41;;;;;;;1.67;1.33;;;20.60;43.00;;;;;;4947363;28;20087;-59
2022/05/02 10:32:48;;;;;;;1.90;1.70;;;20.60;43.00;;;;;;4946291;29;20456;-60
2022/05/02 10:35:16;;;;;;;1.52;1.33;;;20.60;43.00;;;;;;4956008;28;20066;-61
2022/05/02 10:37:49;;;;;;;1.70;1.60;;;20.60;43.00;;;;;;4943649;28;20043;-59
2022/05/02 10:40:22;;;;;;;2.20;1.63;;;20.60;43.00;;;;;;4946929;29;20751;-59
2022/05/02 10:42:52;;;;;;;1.52;1.42;;;20.60;43.00;;;;;;4946233;29;20424;-59
2022/05/02 10:45:18;;;;;;;1.70;1.60;;;20.60;43.00;;;;;;4945907;29;20146;-59
2022/05/02 10:47:54;;;;;;;1.50;1.40;;;20.60;42.90;;;;;;4945986;29;20043;-61
2022/05/02 10:50:44;;;;;;;2.20;1.58;;;20.60;43.00;;;;;;4946569;28;20909;-59
2022/05/02 10:53:48;;;;;;;1.60;1.27;;;20.60;42.90;;;;;;4946851;29;20526;-60
2022/05/02 10:56:35;;;;;;;2.20;1.73;;;20.60;42.90;;;;;;4947055;29;20047;-60
2022/05/02 10:59:03;;;;;;;1.52;1.38;;;20.60;42.90;;;;;;4947128;29;20098;-59
2022/05/02 11:01:46;;;;;;;1.90;1.30;;;20.60;42.90;;;;;;4946283;28;20039;-60
2022/05/02 11:04:23;;;;;;;2.35;1.30;;;20.60;42.90;;;;;;4945670;28;20495;-59
2022/05/02 11:07:08;;;;;;;1.45;1.35;;;20.60;42.90;;;;;;4945585;28;20051;-59
2022/05/02 11:09:48;;;;;;;1.90;1.50;;;20.60;42.90;;;;;;4946877;29;20074;-59
2022/05/02 11:12:19;;;;;;;1.60;1.50;;;20.60;42.80;;;;;;4945988;28;20098;-60
2022/05/02 11:15:17;;;;;;;1.70;1.60;;;20.50;42.80;;;;;;4962255;28;20593;-59
2022/05/02 11:18:04;;;;;;;1.48;1.33;;;20.60;42.80;;;;;;4922472;29;20059;-59
2022/05/02 11:20:50;;;;;;;1.80;1.50;;;20.50;42.90;;;;;;4942868;28;20142;-60
2022/05/02 11:23:28;;;;;;;1.58;1.48;;;20.60;42.90;;;;;;4944382;28;21078;-59
2022/05/02 11:26:37;;;;;;;1.65;1.55;;;20.50;42.90;;;;;;4946286;29;20042;-60
2022/05/02 11:29:30;;;;;;;1.40;1.30;;;20.60;42.90;;;;;;4945483;28;20158;-60
2022/05/02 11:32:04;;;;;;;1.60;1.50;;;20.50;42.80;;;;;;4944675;28;20047;-60
2022/05/02 11:34:52;;;;;;;1.60;1.50;;;20.50;42.80;;;;;;4942243;29;20368;-61
2022/05/02 11:37:54;;;;;;;1.98;1.50;;;20.60;42.90;;;;;;4945111;28;20043;-60
2022/05/02 11:40:27;;;;;;;1.55;1.45;;;20.60;43.00;;;;;;4944786;28;20040;-60
2022/05/02 11:42:54;;;;;;;1.70;1.48;;;20.50;43.00;;;;;;4944818;29;20434;-60
2022/05/02 11:45:41;;;;;;;1.60;1.50;;;20.50;42.90;;;;;;4946289;28;20126;-60
2022/05/02 11:48:19;;;;;;;1.35;1.25;;;20.60;42.90;;;;;;4944422;29;20039;-59
2022/05/02 11:50:49;;;;;;;2.20;1.50;;;20.50;42.80;;;;;;4945672;28;20054;-59
2022/05/02 11:53:17;;;;;;;2.00;1.40;;;20.50;42.60;;;;;;4944212;29;20047;-59
2022/05/02 11:55:46;;;;;;;1.55;1.38;;;20.50;42.60;;;;;;4946302;29;20046;-60
2022/05/02 11:58:23;;;;;;;2.22;1.50;;;20.50;42.70;;;;;;4945466;29;20043;-59
2022/05/02 12:01:01;;;;;;;1.60;1.50;;;20.50;42.70;;;;;;4945580;28;20043;-60
2022/05/02 12:03:35;;;;;;;2.30;1.42;;;20.60;42.90;;;;;;4942726;29;20035;-60
2022/05/02 12:06:04;;;;;;;2.22;1.70;;;20.50;42.70;;;;;;4946417;28;20106;-59
2022/05/02 12:08:44;;;;;;;1.88;1.40;;;20.50;42.70;;;;;;4944344;29;20046;-59
2022/05/02 12:11:15;;;;;;;1.58;1.40;;;20.60;42.60;;;;;;4943959;29;20125;-60
2022/05/02 12:13:47;;;;;;;1.63;1.52;;;20.50;42.50;;;;;;4943986;28;20126;-61
2022/05/02 12:16:14;;;;;;;1.45;1.30;;;20.60;42.50;;;;;;4945346;28;20047;-60
2022/05/02 12:18:48;;;;;;;1.52;1.42;;;20.50;42.60;;;;;;4945849;28;20047;-59
2022/05/02 12:21:21;;;;;;;1.63;1.30;;;20.50;42.40;;;;;;4944270;28;20122;-60
2022/05/02 12:23:49;;;;;;;1.83;1.35;;;20.50;42.40;;;;;;4959498;28;20043;-60
2022/05/02 12:26:18;;;;;;;1.92;1.38;;;20.60;42.40;;;;;;4946017;28;20043;-60
2022/05/02 12:28:51;;;;;;;1.40;1.30;;;20.50;42.30;;;;;;4943773;28;20035;-60
2022/05/02 12:31:27;;;;;;;1.85;1.55;;;20.60;42.30;;;;;;4944722;29;20047;-60
2022/05/02 12:33:59;;;;;;;1.80;1.67;;;20.60;42.20;;;;;;4944907;28;20051;-61
2022/05/02 12:36:33;;;;;;;1.52;1.42;;;20.60;42.20;;;;;;4946417;28;20930;-61
2022/05/02 12:39:05;;;;;;;1.95;1.27;;;20.60;42.10;;;;;;4944887;28;20047;-60
2022/05/02 12:41:46;;;;;;;2.17;1.60;;;20.60;42.10;;;;;;4944598;29;20047;-61
2022/05/02 12:44:13;;;;;;;1.63;1.52;;;20.60;42.00;;;;;;4941796;29;20051;-59
2022/05/02 12:46:43;;;;;;;1.48;1.38;;;20.50;41.90;;;;;;4944679;29;20039;-61
2022/05/02 12:49:26;;;;;;;1.67;1.58;;;20.60;41.90;;;;;;4945101;29;20055;-60
2022/05/02 12:51:54;;;;;;;3.03;1.70;;;20.60;41.80;;;;;;4945962;28;20126;-59
2022/05/02 12:54:26;;;;;;;2.17;1.60;;;20.50;41.70;;;;;;4944447;29;20504;-60
2022/05/02 13:02:40;;;;;;;2.05;1.50;;;20.60;41.80;;;;;;4945063;28;20194;-60
2022/05/02 13:05:09;;;;;;;1.60;1.50;;;20.60;41.80;;;;;;4944399;28;20138;-60
2022/05/02 13:07:44;;;;;;;2.28;1.80;;;20.60;42.50;;;;;;4945424;28;20118;-60
2022/05/02 13:10:20;;;;;;;3.45;1.73;;;20.60;41.70;;;;;;4943970;28;20059;-61
2022/05/02 13:12:59;;;;;;;2.25;1.60;;;20.60;41.70;;;;;;4944539;29;20042;-59
2022/05/02 13:15:29;;;;;;;1.95;1.25;;;20.60;41.70;;;;;;4944355;29;20044;-60
2022/05/02 13:18:04;;;;;;;2.10;1.90;;;20.60;41.70;;;;;;4945009;29;20051;-60
2022/05/02 13:20:31;;;;;;;1.40;1.30;;;20.70;41.70;;;;;;4943946;29;20358;-61
2022/05/02 13:23:14;;;;;;;2.33;1.60;;;20.70;41.60;;;;;;4945597;28;20135;-60
2022/05/02 13:26:18;;;;;;;1.80;1.70;;;20.70;41.60;;;;;;4944032;28;20055;-62
2022/05/02 13:29:13;;;;;;;2.38;1.60;;;20.70;41.60;;;;;;4946371;28;20435;-60
2022/05/02 13:31:45;;;;;;;1.70;1.38;;;20.70;41.60;;;;;;4962184;28;20058;-62
2022/05/02 13:34:21;;;;;;;1.52;1.40;;;20.70;41.70;;;;;;4948091;28;20077;-60
2022/05/02 13:36:50;;;;;;;1.55;1.45;;;20.70;41.60;;;;;;4947392;28;20059;-59
2022/05/02 13:39:22;;;;;;;1.90;1.75;;;20.70;41.60;;;;;;4946803;28;20054;-59
2022/05/02 13:42:02;;;;;;;1.88;1.50;;;20.70;41.60;;;;;;4948072;29;20315;-60
2022/05/02 13:45:06;;;;;;;2.40;1.85;;;20.70;41.60;;;;;;4947260;29;20043;-60
2022/05/02 13:47:50;;;;;;;1.90;1.70;;;20.80;41.70;;;;;;4925137;29;20036;-60
2022/05/02 13:50:19;;;;;;;2.00;1.45;;;20.70;41.60;;;;;;4946715;28;20055;-60
2022/05/02 13:53:23;;;;;;;1.83;1.42;;;20.70;41.60;;;;;;4947947;28;20043;-60
2022/05/02 13:56:07;;;;;;;2.45;1.48;;;20.80;41.60;;;;;;4947143;28;20051;-60